Waynesville, GA

6:26 AM EST on November 28, 2014 (GMT -0500)
KGAHORTE3 | Change Station
CLOSE
Current Station
Personal Weather Station
Location: Hortense, GA
Elevation: 56 ft
Nearby Weather Stations

Elev 56 ft 31.34 °N, 81.96 °W | Updated 4 minutes ago

Clear
Clear
35.1 °F
Feels Like 35 °F
N
0.2
Wind Variable Wind from NNE
Gusts 0.2 mph

Today
High -- | Low -- °F
--% Chance of Precip.
Yesterday
High -- | Low -- °F
Precip. -- in
7:05 AM 5:24 PM
Waxing Crescent, 39% visible
Pressure 30.36 in
Visibility 10.0 miles
Clouds Clear
Windchill 35 °F
Dew Point Not available.
Humidity Not available.
Rainfall 0.00 in
Snow Depth Not available.
UV 0 out of 12
Pollen 1.80 out of 12
Air Quality Not available.
Flu Activity Not available.
METAR KBQK 281115Z AUTO 34006KT 10SM CLR 03/M01 A3036 RMK AO1

More Conditions Fewer Conditions

Pressure 30.36 in
Visibility 10.0 miles
Clouds Clear
Windchill 35 °F
Dew Point Not available.
Humidity Not available.
Rainfall 0.00 in
Snow Depth Not available.
UV 0 out of 12
Pollen 1.80 out of 12
Air Quality Not available.
Flu Activity Not available.
METAR KBQK 281115Z AUTO 34006KT 10SM CLR 03/M01 A3036 RMK AO1

More Conditions Fewer Conditions

10-Day Weather Forecast

Almanac

Astronomy

Nov. 28, 2014 Rise Set
Actual Time
Civil Twilight
Nautical Twilight
Astronomical Twilight
Moon
Length of Visible Light
Length of Day
Tomorrow will be .
, % of the Moon is Illuminated

Today's Extremes

State Highs State Lows

Community

WunderPhotos

Upload Photos

1,774,192 photos uploaded!

WunderBlogs® & News

Nearby

Air Quality

  Air Quality AQ Index Pollutant
Not available.

Snow Depth

Station Depth Elevation

Earthquake Activity

City Distance Mag. Time & Date
Minimum magnitude displayed is 2.5.

Coastal Water Temperatures

Place Temperature

Nearby Weather Stations